Chestnut Dale, North Carolina
Current Conditions -  °F | °C
As of 7:35 PM on Sunday 21 Dec 2014 (Local Time) from KTNB Reporting Station
Haze Haze  
Wind Chill:   Ceiling: NA
Heat Index:   Visibility: 3mi
Dew Point:   Wind: 3mph
Humidity: 99%   Direction: 110°ESE
Pressure: 30.16"   Gusts: NA
Location:  36.0227°N, 81.9499°W
Report Text: KTNB 220035Z AUTO 11003KT 3SM BR 02/02 A3016 RMK AO2 SKY OBSCURED T00170016
Loading
Personal Weather Stations






























Interactive Weather Map New forecast layout! Learn more

10-Day Weather Forecast

Advertisements
Track Severe Weather on mobile